• Join FlightAware (Why Join?)
  • Login
  • US Flag 
06:18PM EDT


 

Airport Tracker/Info


-or-


 

Live Flight TrackerFlight Track Log ✈ UAL1494 ✈ 30-Sep-2013 ✈ KSFO - KEWR

Flight Track Log - Related Links

Times and Time Zones

All times are in EDT time to prevent confusion due to time zone crossing. See the UAL1494 flight status page for this flight to view local times or setup timezone preferences in your user account.

Time Position Orientation Groundspeed Altitude Reporting Facility
EDT Latitude Longitude Course Direction KTS MPH feet Rate Location/Type
02:59AM 37.6170 -122.3740 90° East 150 173  Level FlightAware
02:59AM 37.6269 -122.3670 29° Northeast 184 212 100 1,860 Climbing FlightAware ADS-B
03:00AM 37.6385 -122.3590 29° Northeast 184 212 900 3,120 Climbing FlightAware ADS-B
03:00AM 37.6440 -122.3550 30° Northeast 182 209 1,300 1,740 Climbing FlightAware ADS-B
03:00AM 37.6575 -122.3480 22° Northeast 200 230 1,600 1,080 Climbing FlightAware ADS-B
03:00AM 37.6714 -122.3390 27° Northeast 220 253 1,900 1,440 Climbing FlightAware ADS-B
03:01AM 37.6842 -122.3310 26° Northeast 235 270 2,300 1,800 Climbing FlightAware ADS-B
03:01AM 37.6914 -122.3270 24° Northeast 239 275 2,500 2,160 Climbing FlightAware ADS-B
03:01AM 37.6958 -122.3260 10° North 238 274 2,700 3,240 Climbing FlightAware ADS-B
03:01AM 37.7032 -122.3250 North 233 268 3,100 2,700 Climbing FlightAware ADS-B
03:01AM 37.7068 -122.3250 360° North 231 266 3,200 2,220 Climbing FlightAware ADS-B
03:01AM 37.7110 -122.3260 349° North 230 265 3,400 3,000 Climbing FlightAware ADS-B
03:01AM 37.7173 -122.3280 346° North 229 264 3,700 2,700 Climbing FlightAware ADS-B
03:01AM 37.7320 -122.3340 342° North 235 270 4,300 2,400 Climbing FlightAware ADS-B
03:02AM 37.7490 -122.3410 342° North 244 281 4,900 2,460 Climbing FlightAware ADS-B
03:02AM 37.7655 -122.3480 341° North 247 284 5,600 2,520 Climbing FlightAware ADS-B
03:02AM 37.7868 -122.3580 340° North 255 293 6,400 2,460 Climbing FlightAware ADS-B
03:02AM 37.8064 -122.3620 351° North 262 302 7,100 2,400 Climbing FlightAware ADS-B
03:03AM 37.8104 -122.3620 360° North 265 305 7,200 1,980 Climbing FlightAware ADS-B
03:03AM 37.8437 -122.3410 26° Northeast 270 311 8,200 2,220 Climbing FlightAware ADS-B
03:03AM 37.8469 -122.3370 45° Northeast 289 333 8,400 2,460 Climbing FlightAware ADS-B
03:03AM 37.8610 -122.3200 44° Northeast 296 341 8,900 2,220 Climbing FlightAware ADS-B
03:04AM 37.8823 -122.2920 46° Northeast 301 346 9,800 1,920 Climbing FlightAware ADS-B
03:04AM 37.9128 -122.2510 47° Northeast 327 376 10,600 1,380 Climbing FlightAware ADS-B
03:05AM 37.9466 -122.2070 46° Northeast 356 410 11,200 1,140 Climbing FlightAware ADS-B
03:05AM 37.9917 -122.1490 45° Northeast 389 448 11,900 1,560 Climbing FlightAware ADS-B
03:06AM 38.0557 -122.0650 46° Northeast 400 460 13,500 1,920 Climbing FlightAware ADS-B
03:07AM 38.0970 -122.0110 46° Northeast 416 479 14,500 1,860 Climbing FlightAware
03:07AM 38.1460 -121.9470 46° Northeast 423 487 15,600 1,680 Climbing FlightAware
03:08AM 38.1940 -121.8820 47° Northeast 430 495 16,600 1,680 Climbing FlightAware
03:08AM 38.2410 -121.8210 46° Northeast 437 503 17,600 1,800 Climbing FlightAware
03:09AM 38.2676 -121.7860 46° Northeast 442 509 18,100 1,560 Climbing FlightAware ADS-B
03:10AM 38.3430 -121.6860 46° Northeast 452 520 19,500 1,560 Climbing FlightAware
03:10AM 38.3960 -121.6150 46° Northeast 456 525 20,500 1,500 Climbing FlightAware
03:11AM 38.4450 -121.5480 47° Northeast 462 532 21,300 1,260 Climbing FlightAware
03:11AM 38.4850 -121.4810 53° Northeast 467 537 22,000 1,320 Climbing FlightAware
03:12AM 38.5330 -121.3990 53° Northeast 474 545 22,800 1,200 Climbing FlightAware
03:13AM 38.5810 -121.3160 53° Northeast 484 557 23,400 1,020 Climbing FlightAware
03:13AM 38.6240 -121.2420 53° Northeast 490 564 24,000 1,020 Climbing FlightAware
03:14AM 38.6760 -121.1530 53° Northeast 497 572 24,600 960 Climbing FlightAware
03:14AM 38.7220 -121.0740 53° Northeast 502 578 25,200 960 Climbing FlightAware
03:15AM 38.7770 -120.9790 53° Northeast 508 585 25,800 900 Climbing FlightAware
03:15AM 38.8200 -120.9030 54° Northeast 513 590 26,300 840 Climbing FlightAware
03:16AM 38.8720 -120.8130 53° Northeast 517 595 26,800 900 Climbing FlightAware
03:17AM 38.9230 -120.7250 53° Northeast 519 597 27,400 1,080 Climbing FlightAware
03:17AM 38.9720 -120.6400 53° Northeast 517 595 28,100 1,320 Climbing FlightAware
03:18AM 38.9949 -120.6010 53° Northeast 515 593 28,600 1,440 Climbing FlightAware ADS-B (KAHC)
03:18AM 39.0570 -120.4933 53° Northeast 513 590 29,500 1,200 Climbing FlightAware ADS-B (KAHC)
03:19AM 39.0992 -120.4201 53° Northeast 513 590 30,000 960 Climbing FlightAware ADS-B (KAHC)
03:19AM 39.1410 -120.3471 54° Northeast 513 590 30,500 1,020 Climbing FlightAware ADS-B (KAHC)
03:20AM 39.1966 -120.2497 54° Northeast 513 590 31,200 900 Climbing FlightAware ADS-B (KAHC)
03:21AM 39.2535 -120.1497 54° Northeast 517 595 31,700 660 Climbing FlightAware ADS-B (KAHC)
03:21AM 39.2961 -120.0738 54° Northeast 521 600 32,000 960 Climbing FlightAware ADS-B (KAHC)
03:22AM 39.3357 -120.0031 54° Northeast 516 594 32,700 1,260 Climbing FlightAware ADS-B (KAHC)
03:22AM 39.3790 -119.9261 54° Northeast 511 588 33,300 960 Climbing FlightAware ADS-B (KAHC)
03:23AM 39.4202 -119.8530 54° Northeast 510 587 33,700 600 Climbing FlightAware ADS-B (KAHC)
03:23AM 39.4619 -119.7793 54° Northeast 514 592 33,900 480 Climbing FlightAware ADS-B (KAHC)
03:24AM 39.5040 -119.7045 54° Northeast 515 593 34,200 660 Climbing FlightAware ADS-B (KAHC)
03:24AM 39.5429 -119.6280 57° Northeast 517 595 34,600 780 Climbing FlightAware ADS-B (KAHC)
03:25AM 39.5777 -119.5446 62° Northeast 516 594 35,000 360 Climbing FlightAware ADS-B (KAHC)
03:25AM 39.6111 -119.4643 62° Northeast 518 596 35,000  Level FlightAware ADS-B (KAHC)
03:26AM 39.6456 -119.3810 62° Northeast 517 595 35,000  Level FlightAware ADS-B (KAHC)
03:26AM 39.6794 -119.2992 62° Northeast 516 594 35,000  Level FlightAware ADS-B (KAHC)
03:27AM 39.7123 -119.2195 62° Northeast 516 594 35,000  Level FlightAware ADS-B (KAHC)
03:27AM 39.7470 -119.1351 62° Northeast 517 595 35,000  Level FlightAware ADS-B (KAHC)
03:28AM 39.7799 -119.0547 62° Northeast 515 593 35,000  Level FlightAware ADS-B (KAHC)
03:28AM 39.8140 -118.9714 62° Northeast 517 595 35,000  Level FlightAware ADS-B (KAHC)
03:29AM 39.8480 -118.8878 62° Northeast 517 595 35,000  Level FlightAware ADS-B (KAHC)
03:29AM 39.8809 -118.8069 62° Northeast 515 593 35,000  Level FlightAware ADS-B (KAHC)
03:30AM 39.9123 -118.7293 62° Northeast 515 593 35,000  Level FlightAware ADS-B (KAHC)
03:30AM 39.9478 -118.6418 62° Northeast 517 595 35,000  Level FlightAware ADS-B (KAHC)
03:31AM 39.9807 -118.5601 62° Northeast 517 595 35,000  Level FlightAware ADS-B (KAHC)
03:31AM 40.0131 -118.4796 62° Northeast 518 596 35,000  Level FlightAware ADS-B (KAHC)
03:32AM 40.0560 -118.3710 63° Northeast 518 596 35,000  Level FlightAware
03:32AM 40.0970 -118.2710 62° Northeast 518 596 35,000  Level FlightAware
03:33AM 40.1330 -118.1790 63° Northeast 520 598 35,000  Level FlightAware
03:33AM 40.1770 -118.0680 63° Northeast 520 598 35,000  Level FlightAware
03:34AM 40.1894 -118.0370 62° Northeast 521 600 35,000  Level FlightAware ADS-B (KAHC)
03:35AM 40.2500 -117.8830 63° Northeast 521 600 35,000  Level FlightAware
03:35AM 40.2910 -117.7810 62° Northeast 521 600 35,000  Level FlightAware
03:36AM 40.3260 -117.6950 62° Northeast 521 600 35,000  Level FlightAware
03:36AM 40.3610 -117.6100 62° Northeast 521 600 35,000  Level FlightAware
03:37AM 40.3860 -117.5360 66° East 524 603 35,000  Level FlightAware ADS-B (KAHC)
03:38AM 40.4300 -117.4390 59° Northeast 521 600 35,000  Level FlightAware
03:38AM 40.4660 -117.3490 62° Northeast 521 600 35,000  Level FlightAware
03:39AM 40.5020 -117.2610 62° Northeast 521 600 35,000  Level FlightAware
03:40AM 40.5370 -117.1750 62° Northeast 521 600 35,000  Level FlightAware
03:40AM 40.5710 -117.0890 62° Northeast 521 600 35,000  Level FlightAware
03:41AM 40.6060 -117.0030 62° Northeast 521 600 35,000  Level FlightAware
03:41AM 40.6400 -116.9180 62° Northeast 521 600 35,000  Level FlightAware
03:42AM 40.6750 -116.8320 62° Northeast 521 600 35,000  Level FlightAware
03:43AM 40.7100 -116.7460 62° Northeast 521 600 35,000  Level FlightAware
03:43AM 40.8062 -116.4360 68° East 35,000  Level FlightAware ADS-B
03:43AM 40.8094 -116.4270 65° Northeast 523 602 35,000  Level FlightAware ADS-B
03:44AM 40.7790 -116.5740 255° West 521 600 35,000  Level FlightAware
03:44AM 40.8140 -116.4880 62° Northeast 521 600 35,000  Level FlightAware
03:47AM 41.0281 -115.8380 66° East 529 609 35,000  Level FlightAware ADS-B
03:47AM 41.0607 -115.7490 64° Northeast 530 610 35,000  Level FlightAware ADS-B
03:48AM 41.0943 -115.6570 64° Northeast 530 610 35,000  Level FlightAware ADS-B
03:49AM 41.1562 -115.4870 64° Northeast 531 611 35,000  Level FlightAware ADS-B
03:49AM 41.2011 -115.3630 64° Northeast 531 611 35,000  Level FlightAware ADS-B
03:50AM 41.2328 -115.2750 64° Northeast 530 610 35,000  Level FlightAware ADS-B
03:50AM 41.2652 -115.1850 64° Northeast 529 609 35,000  Level FlightAware ADS-B
03:51AM 41.2971 -115.0960 64° Northeast 530 610 35,000  Level FlightAware ADS-B
03:51AM 41.3288 -115.0070 65° Northeast 531 611 35,000  Level FlightAware ADS-B
03:52AM 41.3606 -114.9180 65° Northeast 533 613 35,000  Level FlightAware ADS-B
03:52AM 41.3923 -114.8280 65° Northeast 535 616 35,000  Level FlightAware ADS-B
03:53AM 41.4242 -114.7380 65° Northeast 534 615 35,000  Level FlightAware ADS-B
03:53AM 41.4567 -114.6460 65° Northeast 535 616 35,000  Level FlightAware ADS-B
03:54AM 41.4895 -114.5530 65° Northeast 534 615 35,000  Level FlightAware ADS-B
03:54AM 41.5210 -114.4630 65° Northeast 534 615 35,000  Level FlightAware ADS-B
03:55AM 41.5524 -114.3730 65° Northeast 536 617 35,000  Level FlightAware ADS-B
03:55AM 41.5840 -114.2820 65° Northeast 538 619 35,000  Level FlightAware ADS-B
03:56AM 41.6155 -114.1920 65° Northeast 537 618 35,000  Level FlightAware ADS-B
03:56AM 41.6467 -114.1010 65° Northeast 537 618 35,000  Level FlightAware ADS-B
03:56AM 41.6477 -114.0986 62° Northeast 537 618 35,000  Level FlightAware ADS-B (KPVU)
03:57AM 41.6784 -114.0090 65° Northeast 539 620 35,000  Level FlightAware ADS-B
03:57AM 41.6789 -114.0078 60° Northeast 539 620 35,000  Level FlightAware ADS-B (KPVU)
03:57AM 41.7100 -113.9170 65° Northeast 538 619 35,000  Level FlightAware ADS-B
03:57AM 41.7100 -113.9174 265° West 538 619 35,000  Level FlightAware ADS-B (KPVU)
03:58AM 41.7414 -113.8260 65° Northeast 536 617 35,000  Level FlightAware ADS-B
03:58AM 41.7529 -113.7921 66° East 534 615 35,000  Level FlightAware ADS-B (KPVU)
03:59AM 41.7882 -113.6887 65° Northeast 534 615 35,000  Level FlightAware ADS-B (KPVU)
03:59AM 41.8184 -113.6000 65° Northeast 534 615 35,000  Level FlightAware ADS-B
03:59AM 41.8172 -113.6034 245° Southwest 536 617 35,000  Level FlightAware ADS-B (KPVU)
04:00AM 41.8500 -113.5061 66° East 534 615 35,000  Level FlightAware ADS-B (KPVU)
04:00AM 41.8524 -113.4990 66° East 533 613 35,000  Level FlightAware ADS-B
04:00AM 41.8924 -113.3810 65° Northeast 533 613 35,000  Level FlightAware ADS-B
04:00AM 41.9019 -113.3526 66° East 534 615 35,000  Level FlightAware ADS-B (KPVU)
04:01AM 41.9283 -113.2740 66° East 536 617 35,000  Level FlightAware ADS-B
04:01AM 41.9414 -113.2348 66° East 538 619 35,000  Level FlightAware ADS-B (KPVU)
04:02AM 41.9728 -113.1410 66° East 539 620 35,000  Level FlightAware ADS-B
04:02AM 42.0060 -113.0410 66° East 540 621 35,000  Level FlightAware ADS-B
04:03AM 42.0253 -112.9830 66° East 541 623 35,000  Level FlightAware ADS-B (KPVU)
04:03AM 42.0384 -112.9430 66° East 542 624 35,000  Level FlightAware ADS-B
04:03AM 42.0569 -112.8878 66° East 542 624 35,000  Level FlightAware ADS-B (KPVU)
04:03AM 42.0737 -112.8370 66° East 543 625 35,000  Level FlightAware ADS-B
04:04AM 42.0875 -112.7946 66° East 543 625 35,000  Level FlightAware ADS-B (KPVU)
04:04AM 42.1078 -112.7330 66° East 544 626 35,000  Level FlightAware ADS-B
04:04AM 42.1184 -112.7004 66° East 544 626 35,000  Level FlightAware ADS-B (KPVU)
04:04AM 42.1435 -112.6240 66° East 543 625 35,000  Level FlightAware ADS-B
04:05AM 42.1740 -112.5310 66° East 541 623 35,000  Level FlightAware
04:05AM 42.2050 -112.4360 66° East 540 621 35,000  Level FlightAware
04:06AM 42.2169 -112.3990 67° East 541 623 35,000  Level FlightAware ADS-B
04:06AM 42.2492 -112.3010 66° East 540 621 35,000  Level FlightAware ADS-B
04:07AM 42.2888 -112.1830 66° East 541 623 35,000  Level FlightAware ADS-B
04:07AM 42.3248 -112.0750 66° East 541 623 35,000  Level FlightAware ADS-B
04:08AM 42.3564 -111.9790 66° East 543 625 35,000  Level FlightAware ADS-B
04:08AM 42.3870 -111.8860 66° East 545 627 35,000  Level FlightAware ADS-B
04:09AM 42.4222 -111.7790 66° East 546 628 35,000  Level FlightAware ADS-B
04:10AM 42.4544 -111.6800 66° East 547 629 35,000  Level FlightAware ADS-B
04:10AM 42.4855 -111.5840 66° East 546 628 35,000  Level FlightAware ADS-B
04:11AM 42.5173 -111.4860 66° East 546 628 35,000  Level FlightAware ADS-B
04:11AM 42.5510 -111.3810 66° East 545 627 35,000  Level FlightAware
04:12AM 42.5820 -111.2850 66° East 546 628 35,000  Level FlightAware
04:12AM 42.6220 -111.1650 66° East 546 628 35,000  Level FlightAware
04:13AM 42.6530 -111.0690 66° East 546 628 35,000  Level FlightAware
04:14AM 42.6840 -110.9730 66° East 546 628 35,000  Level FlightAware
04:14AM 42.7160 -110.8770 66° East 546 628 35,000  Level FlightAware
04:15AM 42.7580 -110.7480 66° East 546 628 35,000  Level FlightAware
04:16AM 42.7890 -110.6520 66° East 546 628 35,000  Level FlightAware
04:16AM 42.8210 -110.5530 66° East 546 628 35,000  Level FlightAware
04:17AM 42.8530 -110.4570 66° East 546 628 35,000  Level FlightAware
04:17AM 42.8840 -110.3610 66° East 546 628 35,000  Level FlightAware
04:18AM 42.9160 -110.2640 66° East 546 628 35,000  Level FlightAware
04:19AM 42.9470 -110.1680 66° East 546 628 35,000  Level FlightAware
04:19AM 42.9790 -110.0710 66° East 546 628 35,000  Level FlightAware
04:20AM 43.0100 -109.9750 66° East 546 628 35,000  Level FlightAware
04:20AM 43.0410 -109.8780 66° East 546 628 35,000  Level FlightAware
04:21AM 43.0730 -109.7810 66° East 546 628 35,000  Level FlightAware
04:22AM 43.1040 -109.6850 66° East 546 628 35,000  Level FlightAware
04:23AM 43.2375 -109.1572 66° East 552 635 35,000  Level Salt Lake Center
04:24AM 43.2947 -108.9647 68° East 547 629 35,000  Level Salt Lake Center
04:25AM 43.3508 -108.7703 68° East 549 632 35,000  Level Salt Lake Center
04:26AM 43.4081 -108.5747 68° East 555 639 35,000  Level Salt Lake Center
04:27AM 43.4653 -108.3772 68° East 558 642 35,000  Level Salt Lake Center
04:33AM 43.8100 -107.1410 68° East 560 644 35,000  Level FlightAware
04:34AM 43.8380 -107.0410 69° East 560 644 35,000  Level FlightAware
04:34AM 43.8660 -106.9380 69° East 560 644 35,000  Level FlightAware
04:35AM 43.8950 -106.8360 68° East 560 644 35,000  Level FlightAware
04:35AM 43.9230 -106.7330 69° East 560 644 35,000  Level FlightAware
04:36AM 43.9520 -106.6300 69° East 560 644 35,000  Level FlightAware
04:37AM 43.9800 -106.5270 69° East 560 644 35,000  Level FlightAware
04:37AM 44.0080 -106.4250 69° East 560 644 35,000  Level FlightAware
04:38AM 44.0370 -106.3220 69° East 560 644 35,000  Level FlightAware
04:38AM 44.0650 -106.2190 69° East 560 644 35,000  Level FlightAware
04:39AM 44.0940 -106.1160 69° East 560 644 35,000  Level FlightAware
04:40AM 44.1220 -106.0120 69° East 560 644 35,000  Level FlightAware
04:40AM 44.1500 -105.9090 69° East 560 644 35,000  Level FlightAware
04:41AM 44.1790 -105.8060 69° East 560 644 35,000  Level FlightAware
04:41AM 44.2080 -105.7000 69° East 560 644 35,000  Level FlightAware
04:42AM 44.2360 -105.5970 69° East 560 644 35,000  Level FlightAware
04:43AM 44.2650 -105.4930 69° East 560 644 35,000  Level FlightAware
04:43AM 44.1194 -105.0356 69° East 567 652 35,000  Level Denver Center
04:44AM 44.1358 -104.8272 84° East 565 650 35,000  Level Denver Center
04:45AM 44.1542 -104.5864 84° East 562 647 35,000  Level Denver Center
04:46AM 44.1697 -104.3803 84° East 559 643 35,000  Level Denver Center
04:47AM 44.1842 -104.1756 84° East 555 639 35,000  Level Denver Center
04:48AM 44.2011 -103.9333 84° East 559 643 35,000  Level Denver Center
04:49AM 44.2150 -103.7253 85° East 563 648 35,000  Level Denver Center
04:50AM 44.2294 -103.5178 84° East 562 647 35,000  Level Denver Center
04:51AM 44.2433 -103.3081 85° East 566 651 35,000  Level Denver Center
04:52AM 44.2564 -103.0958 85° East 565 650 35,000  Level Denver Center
04:53AM 44.2694 -102.8778 85° East 566 651 35,000  Level Denver Center
04:54AM 44.2825 -102.6594 85° East 566 651 35,000  Level Denver Center
04:55AM 44.2944 -102.4411 86° East 565 650 35,000  Level Denver Center
04:56AM 44.3056 -102.2233 86° East 565 650 35,000  Level Denver Center
04:57AM 44.3175 -102.0083 85° East 560 644 35,000  Level Denver Center
04:58AM 44.3267 -101.7903 87° East 563 648 35,000  Level Denver Center
04:59AM 44.3367 -101.5308 87° East 562 647 35,000  Level Minneapolis Center
05:00AM 44.3475 -101.3147 86° East 562 647 35,000  Level Minneapolis Center
05:01AM 44.3575 -101.0994 86° East 560 644 35,000  Level Minneapolis Center
05:02AM 44.3672 -100.8836 86° East 559 643 35,000  Level Minneapolis Center
05:03AM 44.3767 -100.6681 86° East 559 643 35,000  Level Minneapolis Center
05:04AM 44.3853 -100.4531 87° East 558 642 35,000  Level Minneapolis Center
05:05AM 44.3936 -100.2378 87° East 559 643 35,000  Level Minneapolis Center
05:06AM 44.4008 -100.0231 87° East 558 642 35,000  Level Minneapolis Center
05:07AM 44.4094 -99.8081 87° East 558 642 35,000  Level Minneapolis Center
05:08AM 44.4158 -99.5931 88° East 558 642 35,000  Level Minneapolis Center
05:09AM 44.4222 -99.3778 88° East 558 642 35,000  Level Minneapolis Center
05:15AM 44.4530 -98.1100 88° East 555 639 35,000  Level FlightAware
05:16AM 44.4550 -97.9960 89° East 554 638 35,000  Level FlightAware
05:16AM 44.4570 -97.8630 89° East 555 639 35,000  Level FlightAware
05:17AM 44.4590 -97.7550 88° East 555 639 35,000  Level FlightAware
05:17AM 44.4610 -97.6130 89° East 553 636 35,000  Level FlightAware
05:18AM 44.4620 -97.4910 89° East 553 636 35,000  Level FlightAware
05:18AM 44.4640 -97.3630 89° East 553 636 35,000  Level FlightAware
05:19AM 44.4650 -97.2490 89° East 553 636 35,000  Level FlightAware
05:20AM 44.4660 -97.1210 89° East 552 635 35,000  Level FlightAware
05:20AM 44.4670 -96.9870 89° East 553 636 35,000  Level FlightAware
05:21AM 44.4680 -96.8650 89° East 553 636 35,000  Level FlightAware
05:21AM 44.4690 -96.7300 89° East 553 636 35,000  Level FlightAware
05:22AM 44.4700 -96.6170 89° East 552 635 35,000  Level FlightAware
05:22AM 44.4700 -96.5781 90° East 551 634 35,000  Level FlightAware ADS-B
05:23AM 44.4705 -96.4618 90° East 551 634 35,000  Level FlightAware ADS-B
05:23AM 44.4706 -96.4334 90° East 550 633 35,000  Level FlightAware ADS-B
05:24AM 44.4709 -96.2274 90° East 549 632 35,000  Level FlightAware ADS-B
05:25AM 44.4710 -95.8690 90° East 550 633 35,000  Level FlightAware
05:26AM 44.4710 -95.7340 90° East 551 634 35,000  Level FlightAware
05:27AM 44.4700 -95.6220 91° East 552 635 35,000  Level FlightAware
05:27AM 44.4700 -95.4990 90° East 552 635 35,000  Level FlightAware
05:28AM 44.4690 -95.3650 91° East 552 635 35,000  Level FlightAware
05:28AM 44.4680 -95.2430 91° East 551 634 35,000  Level FlightAware
05:29AM 44.4670 -95.1250 91° East 548 631 35,000  Level FlightAware
05:30AM 44.4620 -94.9940 93° East 547 629 35,000  Level FlightAware
05:30AM 44.4560 -94.8680 94° East 547 629 35,000  Level FlightAware
05:31AM 44.4510 -94.7540 93° East 547 629 35,000  Level FlightAware
05:31AM 44.4450 -94.6320 94° East 547 629 35,000  Level FlightAware
05:32AM 44.4390 -94.5010 94° East 549 632 35,000  Level FlightAware
05:33AM 44.4326 -94.3677 94° East 550 633 35,000  Level FlightAware ADS-B
05:33AM 44.4269 -94.2511 94° East 551 634 35,000  Level FlightAware ADS-B
05:34AM 44.4210 -94.1320 94° East 551 634 35,000  Level FlightAware ADS-B
05:34AM 44.4140 -94.0050 94° East 551 634 35,000  Level FlightAware
05:34AM 44.4132 -93.9793 93° East 552 635 35,000  Level FlightAware ADS-B
05:35AM 44.4071 -93.8645 94° East 553 636 35,000  Level FlightAware ADS-B
05:36AM 44.3965 -93.6700 94° East 553 636 35,000  Level FlightAware ADS-B
05:37AM 44.3870 -93.5030 95° East 552 635 35,000  Level FlightAware
05:37AM 44.3810 -93.3910 94° East 550 633 35,000  Level FlightAware
05:37AM 44.3766 -93.3168 95° East 550 633 35,000  Level FlightAware ADS-B
05:38AM 44.3697 -93.1958 95° East 549 632 35,000  Level FlightAware ADS-B
05:39AM 44.3612 -93.0531 95° East 549 632 35,000  Level FlightAware ADS-B
05:39AM 44.3544 -92.9435 95° East 549 632 35,000  Level FlightAware ADS-B
05:40AM 44.3477 -92.8355 95° East 548 631 35,000  Level FlightAware ADS-B
05:40AM 44.3394 -92.7027 95° East 547 629 35,000  Level FlightAware ADS-B
05:41AM 44.3324 -92.5930 95° East 546 628 35,000  Level FlightAware ADS-B
05:41AM 44.3254 -92.4845 95° East 545 627 35,000  Level FlightAware ADS-B
05:42AM 44.3120 -92.2790 95° East 545 627 35,000  Level FlightAware
05:43AM 44.3030 -92.1490 95° East 543 625 35,000  Level FlightAware
05:44AM 44.2950 -92.0290 95° East 544 626 35,000  Level FlightAware
05:44AM 44.2898 -91.9599 96° East 544 626 35,000  Level FlightAware ADS-B
05:45AM 44.2801 -91.8247 96° East 545 627 35,000  Level FlightAware ADS-B
05:45AM 44.2727 -91.7195 96° East 545 627 35,000  Level FlightAware ADS-B
05:46AM 44.2600 -91.5510 96° East 542 624 35,000  Level FlightAware
05:46AM 44.2510 -91.4260 96° East 541 623 35,000  Level FlightAware
05:47AM 44.2420 -91.3010 96° East 541 623 35,000  Level FlightAware
05:48AM 44.2330 -91.1890 96° East 541 623 35,000  Level FlightAware
05:48AM 44.2240 -91.0700 96° East 540 621 35,000  Level FlightAware
05:49AM 44.2130 -90.9350 96° East 538 619 35,000  Level FlightAware
05:49AM 44.2050 -90.8310 96° East 537 618 35,000  Level FlightAware
05:50AM 44.1940 -90.6960 96° East 536 617 35,000  Level FlightAware
05:51AM 44.1850 -90.5860 96° East 535 616 35,000  Level FlightAware
05:51AM 44.1750 -90.4610 96° East 534 615 35,000  Level FlightAware
05:52AM 44.1650 -90.3410 97° East 533 613 35,000  Level FlightAware
05:52AM 44.1550 -90.2320 97° East 532 612 35,000  Level FlightAware
05:53AM 44.1450 -90.1090 96° East 532 612 35,000  Level FlightAware
05:53AM 44.1350 -89.9910 97° East 530 610 35,000  Level FlightAware
05:54AM 44.1250 -89.8770 97° East 531 611 35,000  Level FlightAware
05:55AM 44.1150 -89.7610 97° East 532 612 35,000  Level FlightAware
05:55AM 44.1040 -89.6450 97° East 531 611 35,000  Level FlightAware
05:56AM 44.0920 -89.5120 97° East 530 610 35,000  Level FlightAware
05:56AM 44.0820 -89.4080 98° East 530 610 35,000  Level FlightAware
05:57AM 44.0700 -89.2830 98° East 532 612 35,000  Level FlightAware
05:58AM 44.0590 -89.1590 97° East 532 612 35,000  Level FlightAware
05:58AM 44.0470 -89.0390 98° East 531 611 35,000  Level FlightAware
05:59AM 44.0370 -88.9310 97° East 531 611 35,000  Level FlightAware
05:59AM 44.0250 -88.8100 98° East 531 611 35,000  Level FlightAware
06:00AM 44.0130 -88.6870 98° East 530 610 35,000  Level FlightAware
06:00AM 44.0000 -88.5640 98° East 532 612 35,000  Level FlightAware
06:01AM 43.9900 -88.4590 98° East 532 612 35,000  Level FlightAware
06:02AM 43.9770 -88.3350 98° East 532 612 35,000  Level FlightAware
06:02AM 43.9640 -88.2100 98° East 532 612 35,000  Level FlightAware
06:03AM 43.9530 -88.1020 98° East 534 615 35,000  Level FlightAware
06:03AM 43.9400 -87.9760 98° East 533 613 35,000  Level FlightAware
06:04AM 43.9270 -87.8580 99° East 532 612 35,000  Level FlightAware
06:05AM 43.9160 -87.7500 98° East 531 611 35,000  Level FlightAware
06:05AM 43.9030 -87.6320 99° East 530 610 35,000  Level FlightAware
06:06AM 43.8890 -87.5030 99° East 530 610 35,000  Level FlightAware
06:06AM 43.8760 -87.3910 99° East 528 608 35,000  Level FlightAware
06:07AM 43.8640 -87.2820 99° East 527 606 35,000  Level FlightAware
06:07AM 43.8500 -87.1540 99° East 526 605 35,000  Level FlightAware
06:08AM 43.8360 -87.0360 99° East 525 604 35,000  Level FlightAware
06:09AM 43.8240 -86.9280 99° East 526 605 35,000  Level FlightAware
06:09AM 43.8100 -86.8090 99° East 525 604 35,000  Level FlightAware
06:10AM 43.7970 -86.6970 99° East 525 604 35,000  Level FlightAware
06:10AM 43.7830 -86.5810 99° East 524 603 35,000  Level FlightAware
06:11AM 43.7730 -86.4920 99° East 523 602 35,000  Level FlightAware
06:12AM 43.7550 -86.3490 100° East 523 602 35,000  Level FlightAware
06:12AM 43.7410 -86.2310 99° East 523 602 35,000  Level FlightAware
06:13AM 43.7270 -86.1130 99° East 522 601 35,000  Level FlightAware
06:13AM 43.7130 -86.0060 100° East 522 601 35,000  Level FlightAware
06:14AM 43.6980 -85.8820 99° East 522 601 35,000  Level FlightAware
06:14AM 43.6840 -85.7660 99° East 522 601 35,000  Level FlightAware
06:15AM 43.6700 -85.6590 100° East 522 601 35,000  Level FlightAware
06:16AM 43.6520 -85.5180 100° East 521 600 35,000  Level FlightAware
06:16AM 43.6390 -85.4130 100° East 521 600 35,000  Level FlightAware
06:17AM 43.6220 -85.2850 100° East 520 598 35,000  Level FlightAware
06:17AM 43.6080 -85.1830 101° East 520 598 35,000  Level FlightAware
06:18AM 43.5920 -85.0610 100° East 519 597 35,000  Level FlightAware
06:19AM 43.5770 -84.9490 100° East 518 596 35,000  Level FlightAware
06:19AM 43.5640 -84.8470 100° East 519 597 35,000  Level FlightAware
06:20AM 43.5430 -84.6970 101° East 518 596 35,000  Level FlightAware
06:21AM 43.5270 -84.5780 100° East 518 596 35,000  Level FlightAware
06:21AM 43.5140 -84.4810 100° East 519 597 35,000  Level FlightAware
06:22AM 43.4970 -84.3620 101° East 519 597 35,000  Level FlightAware
06:22AM 43.4800 -84.2410 101° East 519 597 35,000  Level FlightAware
06:23AM 43.4660 -84.1370 100° East 519 597 35,000  Level FlightAware
06:23AM 43.4510 -84.0310 101° East 520 598 35,000  Level FlightAware
06:24AM 43.4330 -83.9080 101° East 520 598 35,000  Level FlightAware
06:25AM 43.4160 -83.7880 101° East 520 598 35,000  Level FlightAware
06:25AM 43.4020 -83.6900 101° East 520 598 35,000  Level FlightAware
06:26AM 43.3830 -83.5620 102° East 520 598 35,000  Level FlightAware
06:26AM 43.3670 -83.4530 101° East 520 598 35,000  Level FlightAware
06:27AM 43.3520 -83.3490 101° East 519 597 35,000  Level FlightAware
06:28AM 43.3320 -83.2210 102° East 518 596 35,000  Level FlightAware
06:28AM 43.3180 -83.1240 101° East 517 595 35,000  Level FlightAware
06:29AM 43.2990 -83.0030 102° East 516 594 35,000  Level FlightAware
06:29AM 43.2820 -82.8860 101° East 516 594 35,000  Level FlightAware
06:30AM 43.2660 -82.7860 102° East 516 594 35,000  Level FlightAware
06:30AM 43.2520 -82.6630 99° East 512 589 35,000  Level FlightAware
06:31AM 43.2460 -82.5670 95° East 513 590 35,000  Level FlightAware
06:32AM 43.2380 -82.4430 95° East 514 592 35,000  Level FlightAware
06:32AM 43.2310 -82.3360 95° East 514 592 35,000  Level FlightAware
06:33AM 43.2240 -82.2310 95° East 514 592 35,000  Level FlightAware
06:33AM 43.2150 -82.0880 95° East 514 592 35,000  Level FlightAware
06:34AM 43.2060 -81.9640 96° East 514 592 35,000  Level FlightAware
06:35AM 43.1980 -81.8360 95° East 513 590 35,000  Level FlightAware
06:35AM 43.1890 -81.7180 96° East 512 589 35,000  Level FlightAware
06:36AM 43.1820 -81.6160 95° East 512 589 35,000  Level FlightAware
06:36AM 43.1740 -81.5020 95° East 512 589 35,000  Level FlightAware
06:37AM 43.1650 -81.3790 96° East 510 587 35,000  Level FlightAware
06:38AM 43.1560 -81.2680 96° East 509 586 35,000  Level FlightAware
06:38AM 43.1480 -81.1580 96° East 508 585 35,000  Level FlightAware
06:39AM 43.1390 -81.0410 96° East 508 585 35,000  Level FlightAware
06:39AM 43.1300 -80.9250 96° East 508 585 35,000  Level FlightAware
06:40AM 43.1220 -80.8240 96° East 508 585 35,000  Level FlightAware
06:41AM 43.1130 -80.7060 96° East 511 588 35,000  Level FlightAware
06:41AM 43.1040 -80.5950 96° East 511 588 35,000  Level FlightAware
06:42AM 43.0950 -80.4860 96° East 510 587 35,000  Level FlightAware
06:42AM 43.0850 -80.3640 96° East 510 587 35,000  Level FlightAware
06:43AM 43.0760 -80.2610 97° East 510 587 35,000  Level FlightAware
06:43AM 43.0670 -80.1500 96° East 509 586 35,000  Level FlightAware
06:44AM 43.0580 -80.0400 96° East 509 586 35,000  Level FlightAware
06:45AM 43.0470 -79.9230 97° East 507 583 35,000  Level FlightAware
06:45AM 43.0380 -79.8120 96° East 505 581 35,000 -120 Level FlightAware
06:46AM 43.0280 -79.6990 97° East 504 580 34,900 -660 Descending FlightAware
06:46AM 43.0180 -79.5930 97° East 503 579 34,300 -960 Descending FlightAware
06:47AM 43.0080 -79.4810 97° East 502 578 33,800 -960 Descending FlightAware
06:48AM 42.9990 -79.3760 97° East 503 579 33,200 -720 Descending FlightAware
06:48AM 42.9890 -79.2690 97° East 505 581 33,000 -180 Descending FlightAware
06:49AM 42.9780 -79.1510 97° East 505 581 33,000  Level FlightAware
06:49AM 42.9680 -79.0500 98° East 504 580 33,000  Level FlightAware
06:50AM 42.9570 -78.9340 97° East 505 581 33,000  Level FlightAware
06:51AM 42.9460 -78.8170 97° East 506 582 33,000  Level FlightAware
06:51AM 42.9350 -78.7110 98° East 506 582 33,000  Level FlightAware
06:52AM 42.9240 -78.5990 98° East 507 583 33,000  Level FlightAware
06:52AM 42.9140 -78.4930 97° East 507 583 33,000  Level FlightAware
06:53AM 42.9020 -78.3790 98° East 506 582 33,000 -120 Level FlightAware
06:53AM 42.8900 -78.2650 98° East 505 581 32,900 -540 Descending FlightAware
06:54AM 42.8800 -78.1610 97° East 504 580 32,400 -900 Descending FlightAware
06:55AM 42.8660 -78.0360 99° East 508 585 31,800 -1,020 Descending FlightAware
06:55AM 42.8530 -77.9090 98° East 509 586 31,100 -1,020 Descending FlightAware
06:56AM 42.8420 -77.8070 98° East 513 590 30,600 -960 Descending FlightAware
06:56AM 42.8270 -77.6890 100° East 515 593 30,000 -960 Descending FlightAware
06:57AM 42.8110 -77.5840 102° East 508 585 29,500 -1,020 Descending FlightAware
06:58AM 42.7950 -77.4800 102° East 500 575 28,900 -1,020 Descending FlightAware
06:58AM 42.7780 -77.3680 102° East 495 570 28,300 -1,020 Descending FlightAware
06:59AM 42.7610 -77.2600 102° East 491 565 27,700 -1,020 Descending FlightAware
06:59AM 42.7440 -77.1520 102° East 480 552 27,100 -600 Descending FlightAware
07:00AM 42.7280 -77.0540 102° East 477 549 27,000 -120 Descending FlightAware
07:01AM 42.7110 -76.9480 102° East 477 549 27,000  Level FlightAware
07:01AM 42.6960 -76.8530 102° East 477 549 27,000  Level FlightAware
07:02AM 42.6810 -76.7600 102° East 475 547 27,000  Level FlightAware
07:02AM 42.6590 -76.6450 105° East 475 547 27,000 -120 Level FlightAware
07:03AM 42.6270 -76.5490 114° Southeast 476 548 26,900 -660 Descending FlightAware
07:03AM 42.5900 -76.4670 121° Southeast 478 550 26,300 -1,080 Descending FlightAware
07:04AM 42.5490 -76.3760 121° Southeast 474 545 25,700 -1,020 Descending FlightAware
07:05AM 42.5120 -76.2950 122° Southeast 463 533 25,200 -1,080 Descending FlightAware
07:05AM 42.4710 -76.2030 121° Southeast 456 525 24,500 -1,080 Descending FlightAware
07:06AM 42.4310 -76.1150 122° Southeast 452 520 23,900 -1,020 Descending FlightAware
07:06AM 42.3950 -76.0370 122° Southeast 450 518 23,400 -1,080 Descending FlightAware
07:07AM 42.3560 -75.9510 122° Southeast 447 514 22,700 -1,200 Descending FlightAware
07:08AM 42.3180 -75.8670 121° Southeast 438 504 22,000 -1,140 Descending FlightAware
07:08AM 42.2820 -75.7880 122° Southeast 435 501 21,400 -1,020 Descending FlightAware
07:09AM 42.2480 -75.7160 123° Southeast 432 497 20,900 -1,080 Descending FlightAware
07:09AM 42.2090 -75.6300 121° Southeast 423 487 20,200 -1,140 Descending FlightAware
07:10AM 42.1710 -75.5480 122° Southeast 417 480 19,500 -1,020 Descending FlightAware
07:10AM 42.1380 -75.4780 122° Southeast 419 482 19,000 -1,020 Descending FlightAware
07:11AM 42.0990 -75.3930 122° Southeast 418 481 18,300 -840 Descending FlightAware
07:12AM 42.0580 -75.3030 122° Southeast 414 476 18,000 -300 Descending FlightAware
07:12AM 42.0310 -75.2310 117° Southeast 413 475 18,000  Level FlightAware
07:13AM 41.9960 -75.1390 117° Southeast 411 473 18,000  Level FlightAware
07:13AM 41.9690 -75.0670 117° Southeast 414 476 18,000  Level FlightAware
07:14AM 41.9380 -74.9850 117° Southeast 414 476 18,000  Level FlightAware
07:15AM 41.9110 -74.9120 116° Southeast 412 474 18,000 -300 Level FlightAware
07:15AM 41.8770 -74.8230 117° Southeast 407 468 17,700 -720 Descending FlightAware
07:16AM 41.8520 -74.7590 118° Southeast 402 463 17,200 -1,080 Descending FlightAware
07:16AM 41.8150 -74.6620 117° Southeast 389 448 16,400 -1,200 Descending FlightAware
07:17AM 41.7860 -74.5870 117° Southeast 367 422 15,700 -1,200 Descending FlightAware
07:17AM 41.7680 -74.5350 115° Southeast 349 402 15,200 -840 Descending FlightAware
07:18AM 41.7600 -74.4660 99° East 329 379 14,900 -300 Descending FlightAware
07:19AM 41.7540 -74.3990 97° East 323 372 14,900 -300 Level FlightAware
07:19AM 41.7460 -74.3220 98° East 324 373 14,600 -660 Descending FlightAware
07:19AM 41.7420 -74.2990 103° East 324 373 14,400 -1,320 Descending FlightAware
07:20AM 41.7280 -74.2600 116° Southeast 322 371 13,900 -1,680 Descending FlightAware
07:20AM 41.7130 -74.2390 134° Southeast 324 373 13,400 -1,800 Descending FlightAware
07:20AM 41.6980 -74.2290 154° Southeast 320 368 13,100 -1,920 Descending FlightAware
07:20AM 41.6860 -74.2250 166° South 318 366 12,800 -1,320 Descending FlightAware
07:21AM 41.6590 -74.2290 186° South 311 358 12,400 -1,500 Descending FlightAware
07:21AM 41.6370 -74.2420 204° Southwest 306 352 11,900 -2,100 Descending FlightAware
07:22AM 41.5940 -74.2710 207° Southwest 299 344 10,800 -1,920 Descending FlightAware
07:22AM 41.5640 -74.2910 207° Southwest 298 343 10,000 -1,920 Descending FlightAware
07:22AM 41.5410 -74.3070 208° Southwest 297 342 9,400 -1,680 Descending FlightAware
07:23AM 41.5130 -74.3250 206° Southwest 295 339 8,800 -1,500 Descending FlightAware
07:23AM 41.4890 -74.3410 207° Southwest 294 338 8,300 -1,680 Descending FlightAware
07:23AM 41.4590 -74.3610 207° Southwest 295 339 7,600 -1,740 Descending FlightAware
07:24AM 41.4330 -74.3780 206° Southwest 294 338 7,000 -1,080 Descending FlightAware
07:24AM 41.4160 -74.3890 206° Southwest 293 337 6,900 -180 Descending FlightAware
07:24AM 41.3780 -74.4060 199° South 289 333 6,900  Level FlightAware
07:25AM 41.3510 -74.4160 196° South 289 333 6,900  Level FlightAware
07:25AM 41.3210 -74.4090 170° South 294 338 6,900  Level FlightAware
07:25AM 41.3130 -74.4040 155° Southeast 296 341 6,900 -720 Level FlightAware
07:26AM 41.2770 -74.3770 151° Southeast 297 342 6,500 -960 Descending FlightAware
07:26AM 41.2540 -74.3600 151° Southeast 296 341 6,100 -1,080 Descending FlightAware
07:26AM 41.2300 -74.3420 151° Southeast 295 339 5,800 -960 Descending FlightAware
07:27AM 41.2140 -74.3300 151° Southeast 295 339 5,600 -960 Descending FlightAware
07:27AM 41.1870 -74.3110 152° Southeast 292 336 5,200 -1,020 Descending FlightAware
07:27AM 41.1620 -74.2920 150° Southeast 291 335 4,900 -540 Descending FlightAware
07:28AM 41.1420 -74.2770 151° Southeast 288 331 4,900  Level FlightAware
07:28AM 41.1150 -74.2580 152° Southeast 286 329 4,900  Level FlightAware
07:28AM 41.0880 -74.2370 150° Southeast 287 330 4,900  Level FlightAware
07:29AM 41.0650 -74.2200 151° Southeast 289 333 4,900  Level FlightAware
07:29AM 41.0520 -74.2110 152° Southeast 281 323 4,900  Level FlightAware
07:29AM 41.0240 -74.1910 152° Southeast 256 295 4,900 -300 Level FlightAware
07:30AM 41.0060 -74.1770 150° Southeast 249 287 4,700 -780 Descending FlightAware
07:30AM 40.9850 -74.1620 152° Southeast 243 280 4,400 -960 Descending FlightAware
07:30AM 40.9660 -74.1480 151° Southeast 240 276 4,100 -720 Descending FlightAware
07:31AM 40.9420 -74.1300 150° Southeast 226 260 3,900 -360 Descending FlightAware
07:31AM 40.9295 -74.1211 152° Southeast 226 260 3,900 -300 Level FlightAware ADS-B
07:32AM 40.8856 -74.0805 145° Southeast 220 253 3,600 -360 Descending FlightAware ADS-B
07:32AM 40.8837 -74.0758 118° Southeast 207 238 3,600 -960 Level FlightAware ADS-B
07:32AM 40.8796 -74.0660 119° Southeast 207 238 3,400 -1,440 Descending FlightAware ADS-B
07:32AM 40.8772 -74.0620 128° Southeast 208 239 3,300 -1,740 Descending FlightAware ADS-B
07:32AM 40.8752 -74.0593 134° Southeast 208 239 3,200 -1,380 Descending FlightAware ADS-B
07:32AM 40.8709 -74.0555 146° Southeast 205 236 3,100 -1,380 Descending FlightAware ADS-B
07:32AM 40.8679 -74.0540 159° South 204 235 3,000 -1,020 Descending FlightAware ADS-B
07:32AM 40.8648 -74.0531 168° South 203 234 3,000 -900 Level FlightAware ADS-B
07:33AM 40.8611 -74.0530 179° South 200 230 2,900 -720 Descending FlightAware ADS-B
07:33AM 40.8568 -74.0543 193° South 197 227 2,900  Level FlightAware ADS-B
07:33AM 40.8491 -74.0611 214° Southwest 195 224 2,900  Level FlightAware ADS-B
07:33AM 40.8470 -74.0633 218° Southwest 191 220 2,900  Level FlightAware ADS-B
07:33AM 40.8449 -74.0656 220° Southwest 191 220 2,900  Level FlightAware ADS-B
07:33AM 40.8399 -74.0701 214° Southwest 194 223 2,900  Level FlightAware ADS-B
07:33AM 40.8341 -74.0743 209° Southwest 198 228 2,900 -900 Level FlightAware ADS-B
07:33AM 40.8227 -74.0819 207° Southwest 199 229 2,600 -1,080 Descending FlightAware ADS-B
07:34AM 40.7971 -74.0981 206° Southwest 195 224 2,100 -1,080 Descending FlightAware ADS-B
07:34AM 40.7846 -74.1062 206° Southwest 195 224 1,800 -1,020 Descending FlightAware ADS-B
07:34AM 40.7720 -74.1141 205° Southwest 189 217 1,600 -960 Descending FlightAware ADS-B
07:35AM 40.7595 -74.1221 206° Southwest 176 203 1,300 -1,140 Descending FlightAware ADS-B
07:35AM 40.7488 -74.1289 206° Southwest 164 189 1,000 -1,020 Descending FlightAware ADS-B
07:35AM 40.7391 -74.1351 206° Southwest 160 184 800 -720 Descending FlightAware ADS-B
07:35AM 40.7263 -74.1432 206° Southwest 153 176 600 -660 Descending FlightAware ADS-B
07:36AM 40.7010 -74.1594 206° Southwest 148 170 -900 Descending FlightAware ADS-B